Time;durP1;ratioP1;P1;durP2;ratioP2;P2;SDS_P1;SDS_P2;PMS_P1;PMS_P2;Temp;Humidity;BMP_temperature;BMP_pressure;BME280_temperature;BME280_humidity;BME280_pressure;Samples;Min_cycle;Max_cycle;Signal;HPM_P1;HPM_P2
2022/08/18 00:00:55;;;;;;;0.10;0.10;;;;;;;22.12;66.92;101421.06;5096683;28;20102;-79
2022/08/18 00:03:21;;;;;;;0.20;0.20;;;;;;;22.10;66.89;101404.94;5102650;28;20039;-79
2022/08/18 00:05:47;;;;;;;0.55;0.55;;;;;;;22.08;66.91;101401.50;5092934;28;20034;-80
2022/08/18 00:08:14;;;;;;;0.20;0.20;;;;;;;22.09;66.89;101396.94;5085653;28;20056;-79
2022/08/18 00:10:41;;;;;;;0.20;0.20;;;;;;;22.06;66.92;101397.16;5083669;28;20024;-79
2022/08/18 00:13:07;;;;;;;0.10;0.10;;;;;;;22.02;66.92;101401.84;5085524;28;20481;-79
2022/08/18 00:15:34;;;;;;;0.20;0.20;;;;;;;21.91;67.21;101399.78;5085340;28;20024;-79
2022/08/18 00:18:00;;;;;;;0.15;0.15;;;;;;;21.93;67.02;101391.59;5088535;28;20096;-79
2022/08/18 00:20:26;;;;;;;0.30;0.30;;;;;;;21.88;67.36;101391.88;5087205;28;20035;-79
2022/08/18 00:22:55;;;;;;;0.45;0.45;;;;;;;21.87;67.33;101389.25;5088891;28;20054;-79
2022/08/18 00:25:22;;;;;;;0.25;0.25;;;;;;;21.85;67.29;101400.13;5086684;28;20058;-79
2022/08/18 00:27:48;;;;;;;0.10;0.10;;;;;;;21.83;67.26;101393.97;5084746;28;20513;-79
2022/08/18 00:30:17;;;;;;;0.30;0.30;;;;;;;21.79;67.37;101384.31;5085750;28;20032;-78
2022/08/18 00:32:51;;;;;;;0.50;0.50;;;;;;;21.79;67.17;101382.50;5088348;28;20113;-79
2022/08/18 00:35:25;;;;;;;0.20;0.20;;;;;;;21.78;67.17;101390.66;5086854;28;20416;-79
2022/08/18 00:37:53;;;;;;;0.20;0.20;;;;;;;21.71;67.44;101391.97;5087731;28;20362;-79
2022/08/18 00:40:23;;;;;;;0.40;0.40;;;;;;;21.65;67.51;101396.78;5083338;28;20119;-79
2022/08/18 00:42:54;;;;;;;0.10;0.10;;;;;;;21.57;67.72;101401.75;5086843;28;20028;-78
2022/08/18 00:45:25;;;;;;;0.10;0.10;;;;;;;21.57;68.00;101401.75;5082991;28;20020;-79
2022/08/18 00:47:52;;;;;;;0.40;0.40;;;;;;;21.55;67.75;101403.63;5087956;28;20392;-79
2022/08/18 00:50:33;;;;;;;0.20;0.20;;;;;;;21.58;67.81;101408.00;5079436;28;20557;-78
2022/08/18 00:55:48;;;;;;;0.22;0.22;;;;;;;21.52;67.91;101406.53;5064098;28;20135;-76
2022/08/18 00:58:38;;;;;;;0.10;0.10;;;;;;;21.53;67.68;101410.06;5067426;28;20033;-78
2022/08/18 01:01:07;;;;;;;0.20;0.20;;;;;;;21.46;67.91;101417.66;5059034;28;20032;-78
2022/08/18 01:03:38;;;;;;;0.25;0.25;;;;;;;21.44;67.70;101420.41;5061841;28;20128;-78
2022/08/18 01:06:13;;;;;;;0.17;0.17;;;;;;;21.46;67.85;101420.34;5061436;28;20025;-78
2022/08/18 01:08:40;;;;;;;0.10;0.10;;;;;;;21.40;67.77;101415.31;5059507;28;20032;-78
2022/08/18 01:11:09;;;;;;;0.30;0.30;;;;;;;21.39;67.76;101410.88;5061615;28;20079;-78
2022/08/18 01:13:40;;;;;;;0.95;0.95;;;;;;;21.38;67.81;101411.81;5058455;28;20175;-78
2022/08/18 01:21:50;;;;;;;0.10;0.10;;;;;;;21.34;68.32;101422.75;5060191;28;20585;-78
2022/08/18 01:24:18;;;;;;;0.20;0.20;;;;;;;21.29;68.11;101419.44;5060878;28;20032;-79
2022/08/18 01:26:48;;;;;;;0.10;0.10;;;;;;;21.29;68.19;101421.28;5057621;28;20086;-78
2022/08/18 01:29:17;;;;;;;0.95;0.63;;;;;;;21.29;68.15;101413.22;5061405;28;20020;-78
2022/08/18 01:31:48;;;;;;;0.10;0.10;;;;;;;21.28;68.28;101420.44;5063351;28;20064;-78
2022/08/18 01:34:15;;;;;;;0.10;0.10;;;;;;;21.27;68.14;101423.19;5060008;28;20028;-78
2022/08/18 01:36:42;;;;;;;0.10;0.10;;;;;;;21.23;68.35;101425.19;5057210;28;20101;-78
2022/08/18 01:39:11;;;;;;;0.77;0.70;;;;;;;21.24;68.43;101418.00;5056837;28;20032;-78
2022/08/18 01:41:37;;;;;;;0.35;0.35;;;;;;;21.22;68.21;101415.38;5061890;28;20029;-78
2022/08/18 01:44:04;;;;;;;0.10;0.10;;;;;;;21.21;68.07;101415.44;5059956;28;20035;-78
2022/08/18 01:46:33;;;;;;;0.45;0.45;;;;;;;21.20;68.28;101414.59;5057001;28;20460;-78
2022/08/18 01:49:00;;;;;;;0.20;0.20;;;;;;;21.19;68.31;101423.63;5057848;28;20028;-78
2022/08/18 01:51:33;;;;;;;0.10;0.10;;;;;;;21.18;68.27;101424.56;5058756;28;20043;-78
2022/08/18 01:54:00;;;;;;;0.10;0.10;;;;;;;21.17;68.26;101430.91;5058713;28;20075;-78
2022/08/18 01:56:27;;;;;;;0.22;0.22;;;;;;;21.16;68.10;101431.91;5056608;28;20487;-78
2022/08/18 01:58:54;;;;;;;0.20;0.20;;;;;;;21.17;68.13;101439.00;5057299;28;20048;-78
2022/08/18 02:01:23;;;;;;;0.10;0.10;;;;;;;21.17;68.18;101447.97;5055287;28;20029;-78
2022/08/18 02:03:55;;;;;;;2.00;0.45;;;;;;;21.17;68.33;101453.38;5052223;28;20090;-78
2022/08/18 02:06:21;;;;;;;;;;;;;;;21.28;67.76;101450.09;5048205;28;20049;-78
2022/08/18 02:08:47;;;;;;;0.10;0.10;;;;;;;21.15;68.18;101460.66;5045042;28;19969;-78
2022/08/18 02:11:14;;;;;;;0.20;0.20;;;;;;;21.13;68.08;101451.81;5041607;28;20045;-78
2022/08/18 02:13:41;;;;;;;0.30;0.30;;;;;;;21.13;68.23;101445.53;5042502;28;20056;-78
2022/08/18 02:16:07;;;;;;;0.10;0.10;;;;;;;21.12;68.16;101443.78;5043457;28;20713;-79
2022/08/18 02:18:38;;;;;;;0.17;0.17;;;;;;;21.13;68.08;101440.13;5044423;28;20071;-78
2022/08/18 02:21:09;;;;;;;1.23;0.68;;;;;;;21.13;68.04;101437.44;5042500;28;20079;-78
2022/08/18 02:23:36;;;;;;;0.10;0.10;;;;;;;21.10;68.00;101432.22;5040533;28;20100;-78
2022/08/18 02:26:07;;;;;;;0.28;0.28;;;;;;;21.08;67.96;101436.81;5043653;28;20535;-78
2022/08/18 02:28:34;;;;;;;1.15;0.50;;;;;;;21.06;68.07;101444.09;5042487;28;20052;-78
2022/08/18 02:31:13;;;;;;;0.30;0.30;;;;;;;21.10;68.14;101451.09;5041881;28;20025;-78
2022/08/18 02:33:39;;;;;;;0.47;0.47;;;;;;;21.04;68.08;101435.25;5046925;28;20551;-78
2022/08/18 02:36:06;;;;;;;0.70;0.70;;;;;;;21.03;68.21;101438.91;5047832;28;20028;-78
2022/08/18 02:38:33;;;;;;;0.20;0.20;;;;;;;21.03;68.25;101439.75;5042978;28;20032;-77
2022/08/18 02:41:02;;;;;;;0.20;0.20;;;;;;;21.04;68.32;101441.50;5040297;28;20227;-77
2022/08/18 02:43:29;;;;;;;0.40;0.40;;;;;;;21.03;68.19;101445.16;5043529;28;20017;-78
2022/08/18 02:45:57;;;;;;;0.68;0.63;;;;;;;21.04;68.25;101451.44;5043442;28;20033;-78
2022/08/18 02:48:30;;;;;;;0.10;0.10;;;;;;;21.05;68.11;101451.34;5046959;28;20049;-78
2022/08/18 02:51:04;;;;;;;7.72;1.27;;;;;;;21.09;68.29;101450.22;5041808;28;20410;-78
2022/08/18 02:53:31;;;;;;;0.10;0.10;;;;;;;21.08;68.30;101450.28;5045811;28;20056;-78
2022/08/18 02:56:15;;;;;;;0.20;0.20;;;;;;;21.13;68.23;101450.91;5046396;28;20025;-78
2022/08/18 02:58:42;;;;;;;0.10;0.10;;;;;;;21.08;68.23;101453.00;5047109;28;20047;-78
2022/08/18 03:01:08;;;;;;;0.10;0.10;;;;;;;21.07;68.21;101449.44;5042120;28;20033;-78
2022/08/18 03:03:35;;;;;;;0.10;0.10;;;;;;;21.05;68.08;101445.06;5043247;28;20031;-78
2022/08/18 03:06:01;;;;;;;0.20;0.20;;;;;;;21.03;68.21;101444.28;5045652;28;20414;-78
2022/08/18 03:08:27;;;;;;;0.10;0.10;;;;;;;21.01;68.15;101452.47;5044375;28;20099;-77
2022/08/18 03:10:53;;;;;;;0.20;0.20;;;;;;;21.00;67.97;101456.13;5043887;28;20030;-78
2022/08/18 03:13:20;;;;;;;0.20;0.20;;;;;;;20.97;68.15;101451.75;5045123;28;20032;-78
2022/08/18 03:15:46;;;;;;;0.10;0.10;;;;;;;20.96;68.33;101455.41;5044953;28;20052;-78
2022/08/18 03:18:13;;;;;;;0.17;0.17;;;;;;;20.95;68.09;101458.19;5042637;28;20029;-78
2022/08/18 03:20:42;;;;;;;0.20;0.20;;;;;;;20.94;68.04;101468.06;5044933;28;20029;-78
2022/08/18 03:23:09;;;;;;;0.32;0.32;;;;;;;20.94;68.26;101468.06;5039928;28;20025;-78
2022/08/18 03:25:35;;;;;;;0.40;0.40;;;;;;;20.95;68.23;101459.03;5037274;28;20060;-78
2022/08/18 03:28:03;;;;;;;1.55;0.68;;;;;;;20.98;68.30;101466.94;5041776;28;20037;-78
2022/08/18 03:30:29;;;;;;;0.17;0.17;;;;;;;21.00;68.22;101462.34;5042091;28;20028;-78
2022/08/18 03:32:56;;;;;;;1.10;0.43;;;;;;;21.03;68.27;101455.94;5043531;28;20382;-78
2022/08/18 03:35:22;;;;;;;0.73;0.73;;;;;;;21.06;68.28;101462.97;5039691;28;20018;-78
2022/08/18 03:37:48;;;;;;;0.20;0.20;;;;;;;21.08;68.38;101458.38;5044260;28;20445;-78
2022/08/18 03:40:14;;;;;;;0.10;0.10;;;;;;;21.09;68.47;101443.97;5049036;28;20108;-78
2022/08/18 03:42:40;;;;;;;0.10;0.10;;;;;;;21.12;68.40;101455.44;5044855;28;20456;-78
2022/08/18 03:45:07;;;;;;;0.10;0.10;;;;;;;21.14;68.28;101460.75;5042915;28;20032;-78
2022/08/18 03:47:34;;;;;;;0.10;0.10;;;;;;;21.15;68.19;101463.34;5047595;28;20402;-79
2022/08/18 03:50:00;;;;;;;0.20;0.20;;;;;;;21.15;68.28;101460.66;5041333;28;20029;-79
2022/08/18 03:52:26;;;;;;;0.50;0.50;;;;;;;21.13;68.43;101457.19;5040916;28;20478;-78
2022/08/18 03:54:53;;;;;;;0.10;0.10;;;;;;;21.12;68.25;101459.94;5042982;28;20478;-78
2022/08/18 03:57:19;;;;;;;0.10;0.10;;;;;;;21.10;68.00;101462.72;5042113;28;20502;-78
2022/08/18 03:59:45;;;;;;;0.15;0.15;;;;;;;21.08;68.15;101461.06;5041525;28;20128;-78
2022/08/18 04:02:12;;;;;;;0.10;0.10;;;;;;;21.07;68.08;101462.91;5042268;28;20029;-78
2022/08/18 04:04:38;;;;;;;0.20;0.20;;;;;;;21.05;67.99;101455.84;5042797;28;20431;-78
2022/08/18 04:07:08;;;;;;;0.22;0.22;;;;;;;21.06;68.06;101460.28;5049882;28;20505;-78
2022/08/18 04:09:36;;;;;;;0.10;0.10;;;;;;;21.03;68.09;101455.94;5052115;28;20501;-78
2022/08/18 04:12:14;;;;;;;0.17;0.17;;;;;;;21.04;68.23;101459.50;5051865;28;20036;-78
2022/08/18 04:14:42;;;;;;;0.60;0.52;;;;;;;21.00;68.09;101461.50;5052886;28;20021;-78
2022/08/18 04:17:09;;;;;;;0.10;0.10;;;;;;;20.98;68.18;101458.84;5052552;28;20123;-78
2022/08/18 04:19:36;;;;;;;0.20;0.20;;;;;;;20.95;68.21;101453.66;5052756;28;20083;-78
2022/08/18 04:22:04;;;;;;;0.10;0.10;;;;;;;20.95;68.11;101448.28;5052377;28;20066;-79
2022/08/18 04:24:33;;;;;;;0.10;0.10;;;;;;;20.94;68.19;101451.06;5053474;28;20078;-78
2022/08/18 04:27:01;;;;;;;0.10;0.10;;;;;;;20.93;68.25;101450.16;5052784;28;20037;-78
2022/08/18 04:29:28;;;;;;;0.28;0.28;;;;;;;20.91;68.35;101441.31;5052538;28;20040;-78
2022/08/18 04:31:55;;;;;;;0.60;0.40;;;;;;;20.89;68.30;101437.81;5052008;28;20500;-78
2022/08/18 04:34:21;;;;;;;0.10;0.10;;;;;;;20.87;68.67;101437.03;5051769;28;20119;-78
2022/08/18 04:36:50;;;;;;;0.20;0.20;;;;;;;20.87;68.60;101434.34;5051195;28;20398;-78
2022/08/18 04:39:16;;;;;;;0.47;0.47;;;;;;;20.85;68.84;101441.66;5050976;28;20047;-78
2022/08/18 04:41:43;;;;;;;0.10;0.10;;;;;;;20.87;68.46;101442.41;5051089;28;20033;-78
2022/08/18 04:44:11;;;;;;;0.10;0.10;;;;;;;20.86;68.68;101440.69;5051776;28;20032;-79
2022/08/18 04:46:41;;;;;;;0.47;0.47;;;;;;;20.86;68.72;101446.09;5052257;28;20100;-78
2022/08/18 04:49:09;;;;;;;0.10;0.10;;;;;;;20.84;68.91;101440.75;5051905;28;20029;-78
2022/08/18 04:51:39;;;;;;;0.15;0.15;;;;;;;20.85;68.82;101447.88;5051579;28;20060;-79
2022/08/18 04:54:05;;;;;;;0.10;0.10;;;;;;;20.87;68.80;101446.94;5052060;28;20505;-79
2022/08/18 04:56:35;;;;;;;0.13;0.13;;;;;;;20.88;69.06;101463.00;5052356;28;20033;-79
2022/08/18 04:59:05;;;;;;;0.20;0.20;;;;;;;20.90;68.94;101461.13;5052482;28;20036;-79
2022/08/18 05:01:36;;;;;;;0.15;0.15;;;;;;;20.93;68.97;101460.94;5051409;28;20036;-78
2022/08/18 05:04:03;;;;;;;1.77;0.37;;;;;;;20.91;69.15;101460.16;5052766;28;20025;-78
2022/08/18 05:06:30;;;;;;;0.10;0.10;;;;;;;20.94;68.87;101456.44;5052258;28;20091;-78
2022/08/18 05:08:59;;;;;;;2.53;1.55;;;;;;;20.96;68.93;101455.41;5052648;28;20076;-78
2022/08/18 05:11:28;;;;;;;0.10;0.10;;;;;;;20.98;69.30;101455.31;5052199;28;20123;-79
2022/08/18 05:13:56;;;;;;;0.10;0.10;;;;;;;20.98;69.34;101453.47;5052331;28;20493;-78
2022/08/18 05:16:24;;;;;;;0.10;0.10;;;;;;;21.01;69.16;101453.31;5052163;28;20033;-78
2022/08/18 05:18:52;;;;;;;0.20;0.20;;;;;;;21.04;69.20;101459.50;5053518;28;20029;-79
2022/08/18 05:21:19;;;;;;;0.13;0.13;;;;;;;21.05;69.18;101455.84;5052225;28;20426;-78
2022/08/18 05:23:47;;;;;;;0.10;0.10;;;;;;;21.06;68.92;101449.50;5052655;28;20124;-78
2022/08/18 05:26:15;;;;;;;0.10;0.10;;;;;;;21.06;69.09;101454.88;5051827;28;20025;-78
2022/08/18 05:28:43;;;;;;;0.10;0.10;;;;;;;21.06;69.17;101458.47;5051529;28;20074;-79
2022/08/18 05:31:14;;;;;;;0.20;0.20;;;;;;;21.09;68.94;101460.13;5052159;28;20037;-78
2022/08/18 05:33:41;;;;;;;0.10;0.10;;;;;;;21.11;69.01;101463.59;5052538;28;20032;-78
2022/08/18 05:39:22;;;;;;;0.28;0.28;;;;;;;21.24;68.72;101453.03;5068649;28;20414;-77
2022/08/18 05:41:52;;;;;;;0.17;0.17;;;;;;;21.20;69.00;101451.44;5048304;28;20045;-77
2022/08/18 05:44:26;;;;;;;0.10;0.10;;;;;;;21.23;68.91;101457.53;5048975;28;20561;-77
2022/08/18 05:46:58;;;;;;;0.10;0.10;;;;;;;21.25;68.78;101460.16;5048748;28;20025;-77
2022/08/18 05:49:26;;;;;;;0.20;0.20;;;;;;;21.26;69.03;101457.38;5048816;28;20036;-77
2022/08/18 05:51:58;;;;;;;0.10;0.10;;;;;;;21.33;69.00;101458.78;5047872;28;20387;-77
2022/08/18 05:57:21;;;;;;;0.10;0.10;;;;;;;21.44;68.99;101451.91;5048384;28;20120;-77
2022/08/18 05:59:51;;;;;;;0.40;0.40;;;;;;;21.42;69.06;101453.81;5048580;28;20025;-78
2022/08/18 06:02:31;;;;;;;0.10;0.10;;;;;;;21.48;69.59;101446.25;5047858;28;20457;-77
2022/08/18 06:05:05;;;;;;;0.25;0.25;;;;;;;21.52;69.27;101443.38;5048744;28;20494;-77
2022/08/18 06:07:41;;;;;;;0.22;0.22;;;;;;;21.55;69.48;101449.47;5048437;28;20021;-77
2022/08/18 06:10:08;;;;;;;0.10;0.10;;;;;;;21.58;69.33;101452.03;5048156;28;20013;-77
2022/08/18 06:12:41;;;;;;;0.38;0.38;;;;;;;21.63;69.22;101454.44;5047213;28;20087;-77
2022/08/18 06:24:33;;;;;;;0.88;0.88;;;;;;;21.92;68.88;101443.81;5069930;28;20531;-77
2022/08/18 06:30:22;;;;;;;0.10;0.10;;;;;;;21.98;69.36;101449.72;5085160;27;20857;-76
2022/08/18 06:38:55;;;;;;;0.13;0.13;;;;;;;22.17;68.78;101448.66;5068342;28;20383;-76
2022/08/18 06:41:42;;;;;;;0.10;0.10;;;;;;;22.19;68.94;101453.94;5067704;28;20397;-77
2022/08/18 06:44:15;;;;;;;0.28;0.28;;;;;;;22.22;68.59;101457.34;5068408;28;20117;-76
2022/08/18 06:55:10;;;;;;;0.57;0.57;;;;;;;22.44;67.97;101466.88;5129481;27;20382;-75
2022/08/18 06:57:51;;;;;;;0.10;0.10;;;;;;;22.48;67.80;101478.34;5129415;27;20114;-76
2022/08/18 07:08:35;;;;;;;1.02;0.45;;;;;;;22.70;67.40;101491.44;5086580;27;20377;-76
2022/08/18 07:11:24;;;;;;;0.10;0.10;;;;;;;22.77;66.54;101490.09;5086095;28;20028;-76
2022/08/18 07:13:53;;;;;;;0.28;0.28;;;;;;;22.77;66.58;101490.94;5086948;28;20020;-76
2022/08/18 07:19:19;;;;;;;0.43;0.43;;;;;;;22.97;66.82;101493.38;5066805;28;20756;-76
2022/08/18 07:21:59;;;;;;;0.65;0.65;;;;;;;22.91;66.64;101492.78;5027805;28;20395;-75
2022/08/18 07:24:31;;;;;;;0.57;0.57;;;;;;;23.01;66.10;101497.66;5027547;28;20030;-77
2022/08/18 07:29:56;;;;;;;0.10;0.10;;;;;;;23.18;66.18;101505.59;5108424;27;20384;-76
2022/08/18 07:32:26;;;;;;;0.25;0.25;;;;;;;23.24;65.71;101496.22;5107939;28;20039;-76
2022/08/18 07:34:57;;;;;;;0.77;0.77;;;;;;;23.26;64.88;101502.41;5108798;28;20039;-76
2022/08/18 07:37:30;;;;;;;0.10;0.10;;;;;;;23.22;64.42;101501.72;5116543;28;20026;-76
2022/08/18 07:45:30;;;;;;;0.57;0.52;;;;;;;23.58;65.24;101503.03;5090950;27;1875150;-77
2022/08/18 07:50:55;;;;;;;0.20;0.20;;;;;;;23.78;64.36;101503.59;5088297;27;20392;-75
2022/08/18 07:56:05;;;;;;;0.10;0.10;;;;;;;23.94;64.40;101505.31;5023669;28;20799;-76
2022/08/18 08:04:35;;;;;;;0.10;0.10;;;;;;;24.27;62.23;101499.47;5115137;27;1184158;-76
2022/08/18 08:07:09;;;;;;;0.00;0.00;;;;;;;24.29;61.49;101507.47;5128490;28;20070;-77
2022/08/18 08:10:17;;;;;;;0.13;0.13;;;;;;;24.49;61.58;101514.28;5127694;27;20028;-77
2022/08/18 08:12:54;;;;;;;0.30;0.30;;;;;;;24.45;60.70;101510.91;5105909;28;20028;-76
2022/08/18 08:18:20;;;;;;;0.10;0.10;;;;;;;24.52;59.93;101503.22;5115867;27;1182742;-77
2022/08/18 08:23:46;;;;;;;0.22;0.22;;;;;;;24.81;61.15;101497.66;5087281;27;20412;-77
2022/08/18 08:31:56;;;;;;;0.20;0.20;;;;;;;25.00;61.08;101486.41;4738679;27;7817273;-77
2022/08/18 08:34:50;;;;;;;0.20;0.20;;;;;;;25.10;60.85;101498.31;5028568;28;20037;-77
2022/08/18 08:37:42;;;;;;;0.30;0.30;;;;;;;25.18;59.80;101485.09;5027562;28;20037;-77
2022/08/18 08:43:21;;;;;;;0.08;0.08;;;;;;;25.49;59.95;101488.28;4501314;27;18452872;-79
2022/08/18 08:46:21;;;;;;;0.10;0.10;;;;;;;25.67;59.15;101487.91;5132149;27;20035;-80
2022/08/18 08:49:04;;;;;;;0.08;0.08;;;;;;;25.83;58.86;101484.94;5130776;27;20039;-80
2022/08/18 08:54:23;;;;;;;0.10;0.10;;;;;;;25.89;58.69;101483.63;5017641;27;3978996;-78
2022/08/18 08:56:57;;;;;;;0.35;0.35;;;;;;;25.83;59.30;101491.25;5130439;27;20557;-78
2022/08/18 08:59:35;;;;;;;23.90;1.05;;;;;;;25.68;56.57;101492.34;5130172;27;20031;-78
2022/08/18 09:02:34;;;;;;;0.10;0.10;;;;;;;25.71;58.99;101489.44;5109503;28;20499;-77
2022/08/18 09:08:22;;;;;;;0.20;0.20;;;;;;;25.87;57.97;101485.56;5114312;27;1260823;-76
2022/08/18 09:19:46;;;;;;;0.77;0.60;;;;;;;26.45;55.98;101486.59;5016651;27;4020453;-77
2022/08/18 09:24:53;;;;;;;0.10;0.10;;;;;;;26.29;55.95;101488.75;5111782;27;20331;-80
2022/08/18 09:27:42;;;;;;;0.00;0.00;;;;;;;26.32;55.36;101491.25;5110661;28;20065;-80
2022/08/18 09:30:45;;;;;;;0.00;0.00;;;;;;;26.32;55.90;101492.09;5111530;28;20031;-80
2022/08/18 09:33:21;;;;;;;0.10;0.10;;;;;;;26.39;56.66;101497.91;5110831;28;20590;-80
2022/08/18 09:41:53;;;;;;;0.10;0.10;;;;;;;27.11;56.73;101494.13;5150907;27;20599;-77
2022/08/18 10:01:20;;;;;;;0.28;0.28;;;;;;;28.29;51.89;101478.22;5068996;27;20394;-85
2022/08/18 10:04:17;;;;;;;0.28;0.28;;;;;;;28.19;49.30;101468.13;5044921;27;20090;-86
2022/08/18 10:06:46;;;;;;;0.20;0.20;;;;;;;28.17;50.92;101467.38;5044402;28;20029;-86
2022/08/18 10:12:24;;;;;;;0.10;0.10;;;;;;;28.05;52.73;101471.16;5009283;27;20395;-78
2022/08/18 10:32:21;;;;;;;0.20;0.20;;;;;;;27.83;49.32;101478.38;5087095;27;20382;-77
2022/08/18 10:34:52;;;;;;;0.45;0.45;;;;;;;27.87;49.05;101468.09;5088287;28;20035;-78
2022/08/18 10:37:43;;;;;;;0.28;0.28;;;;;;;27.93;49.87;101464.88;5088786;27;20119;-78
2022/08/18 10:43:00;;;;;;;0.22;0.22;;;;;;;28.27;50.73;101459.28;5149398;27;20340;-77
2022/08/18 11:05:24;;;;;;;0.10;0.10;;;;;;;28.78;47.07;101462.25;5070745;28;20972;-77
2022/08/18 11:07:58;;;;;;;0.13;0.13;;;;;;;28.79;47.03;101464.84;5068146;28;20032;-77
2022/08/18 11:10:47;;;;;;;0.05;0.05;;;;;;;28.88;44.85;101463.16;5054166;28;20026;-77
2022/08/18 11:13:39;;;;;;;0.10;0.10;;;;;;;29.07;46.02;101453.34;5049343;28;20026;-77
2022/08/18 11:18:48;;;;;;;0.10;0.10;;;;;;;29.10;44.84;101455.78;5098679;27;20393;-77
2022/08/18 11:24:26;;;;;;;0.45;0.30;;;;;;;29.18;44.60;101453.25;5072821;28;20915;-77
2022/08/18 11:29:34;;;;;;;0.10;0.10;;;;;;;29.32;44.54;101458.38;5094536;27;20968;-77
2022/08/18 11:37:37;;;;;;;0.10;0.10;;;;;;;29.71;44.15;101433.00;5063994;28;20402;-77
2022/08/18 11:40:09;;;;;;;1.45;0.30;;;;;;;29.86;44.81;101436.19;5038541;28;20372;-76
2022/08/18 11:42:40;;;;;;;0.05;0.05;;;;;;;29.98;44.54;101426.88;5016372;28;20087;-77
2022/08/18 11:53:41;;;;;;;0.10;0.10;;;;;;;30.27;44.22;101417.78;5100328;27;20400;-76
2022/08/18 11:59:01;;;;;;;0.20;0.20;;;;;;;29.86;44.14;101415.19;5067405;28;20394;-77
2022/08/18 12:01:49;;;;;;;0.10;0.10;;;;;;;29.64;45.29;101427.22;5047418;28;20029;-77
2022/08/18 12:09:45;;;;;;;0.52;0.52;;;;;;;29.02;46.24;101421.91;5107437;27;21022;-77
2022/08/18 12:12:30;;;;;;;0.15;0.15;;;;;;;29.09;46.77;101418.63;5087227;28;20043;-77
2022/08/18 12:17:51;;;;;;;0.10;0.10;;;;;;;29.33;47.71;101401.91;5082412;28;20390;-76
2022/08/18 12:20:18;;;;;;;0.35;0.22;;;;;;;29.38;45.59;101402.34;5064588;28;20509;-77
2022/08/18 12:22:45;;;;;;;0.10;0.10;;;;;;;29.52;45.68;101396.47;5066202;28;20153;-77
2022/08/18 12:25:15;;;;;;;0.10;0.10;;;;;;;29.54;45.45;101393.59;5057855;28;20028;-77
2022/08/18 12:27:41;;;;;;;0.10;0.10;;;;;;;29.71;46.19;101394.78;5056787;28;20033;-76
2022/08/18 12:30:09;;;;;;;0.57;0.32;;;;;;;29.85;45.89;101398.94;5056821;28;20051;-77
2022/08/18 12:32:37;;;;;;;0.10;0.10;;;;;;;30.10;45.98;101407.59;5062422;28;20498;-77
2022/08/18 12:35:05;;;;;;;0.10;0.10;;;;;;;30.25;45.13;101403.38;5058131;28;20090;-77
2022/08/18 12:37:31;;;;;;;0.00;0.00;;;;;;;30.36;43.61;101394.16;5060230;28;20028;-78
2022/08/18 12:40:02;;;;;;;0.38;0.28;;;;;;;30.51;44.37;101394.59;5062789;28;20020;-76
2022/08/18 12:42:28;;;;;;;0.10;0.10;;;;;;;30.54;44.41;101390.69;5058649;28;20020;-78
2022/08/18 12:44:54;;;;;;;0.10;0.10;;;;;;;30.72;44.40;101398.97;5066120;28;20017;-77
2022/08/18 12:47:23;;;;;;;0.10;0.10;;;;;;;30.84;43.40;101397.78;5060920;28;20040;-77
2022/08/18 12:49:50;;;;;;;6.88;0.45;;;;;;;31.03;42.90;101402.31;5058170;28;20036;-77
2022/08/18 12:52:17;;;;;;;0.00;0.00;;;;;;;31.06;42.20;101404.72;5063347;28;20090;-76
2022/08/18 12:54:45;;;;;;;0.10;0.10;;;;;;;31.17;43.64;101403.72;5066047;28;20089;-77
2022/08/18 12:57:19;;;;;;;0.45;0.45;;;;;;;31.26;41.77;101419.19;5065267;28;20060;-77
2022/08/18 12:59:46;;;;;;;0.10;0.10;;;;;;;31.28;42.48;101410.84;5066629;28;20028;-76
2022/08/18 13:02:12;;;;;;;0.05;0.05;;;;;;;31.20;43.10;101411.59;5065510;28;20032;-77
2022/08/18 13:04:38;;;;;;;0.10;0.10;;;;;;;31.23;43.69;101402.22;5066086;28;20067;-77
2022/08/18 13:07:06;;;;;;;0.10;0.10;;;;;;;31.37;42.12;101411.81;5065464;28;20024;-77
2022/08/18 13:09:34;;;;;;;0.25;0.25;;;;;;;31.34;42.36;101414.84;5065883;28;20032;-77
2022/08/18 13:12:01;;;;;;;0.30;0.17;;;;;;;31.14;41.51;101409.47;5064158;28;20039;-77
2022/08/18 13:14:27;;;;;;;0.00;0.00;;;;;;;31.08;42.46;101412.81;5061790;28;20082;-78
2022/08/18 13:16:54;;;;;;;0.17;0.17;;;;;;;30.92;41.90;101410.72;5063211;28;20072;-77
2022/08/18 13:19:20;;;;;;;0.25;0.25;;;;;;;30.60;42.45;101411.97;5065717;28;20108;-77
2022/08/18 13:21:46;;;;;;;0.10;0.10;;;;;;;30.57;43.70;101415.00;5064677;28;20067;-77
2022/08/18 13:24:12;;;;;;;0.00;0.00;;;;;;;30.58;43.06;101412.13;5067346;28;20238;-77
2022/08/18 13:26:42;;;;;;;0.10;0.10;;;;;;;30.71;44.23;101421.88;5065398;28;20017;-77
2022/08/18 13:29:09;;;;;;;0.00;0.00;;;;;;;30.75;43.13;101424.16;5052569;28;20029;-77
2022/08/18 13:31:36;;;;;;;0.10;0.10;;;;;;;30.69;41.80;101422.00;5051350;28;20116;-77
2022/08/18 13:34:06;;;;;;;0.10;0.10;;;;;;;30.65;43.11;101432.38;5051991;28;20025;-77
2022/08/18 13:36:48;;;;;;;0.10;0.10;;;;;;;30.73;44.00;101425.31;5052000;28;20482;-77
2022/08/18 13:39:17;;;;;;;0.10;0.10;;;;;;;30.75;44.98;101426.88;5051927;28;20037;-77
2022/08/18 13:41:45;;;;;;;0.10;0.10;;;;;;;30.82;44.46;101432.66;5051749;28;20432;-78
2022/08/18 13:44:14;;;;;;;0.20;0.20;;;;;;;30.89;44.36;101435.63;5051930;28;20051;-78
2022/08/18 13:46:47;;;;;;;0.08;0.08;;;;;;;31.01;42.32;101436.31;5050845;28;20029;-77
2022/08/18 13:49:15;;;;;;;0.35;0.35;;;;;;;31.03;42.63;101445.22;5051644;28;20029;-78
2022/08/18 13:51:44;;;;;;;0.10;0.10;;;;;;;30.93;43.12;101446.13;5051350;28;20057;-78
2022/08/18 13:54:16;;;;;;;0.10;0.10;;;;;;;30.74;42.47;101441.56;5052571;28;20402;-78
2022/08/18 13:56:43;;;;;;;0.10;0.10;;;;;;;30.63;43.95;101450.84;5051561;28;20029;-78
2022/08/18 13:59:09;;;;;;;0.20;0.20;;;;;;;30.48;43.59;101439.50;5052172;28;20705;-78
2022/08/18 14:01:36;;;;;;;0.10;0.10;;;;;;;30.32;44.21;101448.28;5051766;28;20029;-78
2022/08/18 14:04:02;;;;;;;0.10;0.10;;;;;;;30.13;43.00;101440.09;5051817;28;20025;-78
2022/08/18 14:06:28;;;;;;;0.00;0.00;;;;;;;30.05;44.46;101442.69;5051766;28;20411;-78
2022/08/18 14:08:54;;;;;;;0.10;0.10;;;;;;;29.93;45.17;101445.53;5050771;28;20075;-78
2022/08/18 14:11:26;;;;;;;0.10;0.10;;;;;;;29.93;45.32;101445.53;5052126;28;20437;-78
2022/08/18 14:13:53;;;;;;;0.10;0.10;;;;;;;29.85;45.56;101439.91;5052861;28;20031;-78
2022/08/18 14:16:20;;;;;;;0.10;0.10;;;;;;;29.78;43.75;101433.28;5053372;28;20445;-78
2022/08/18 14:26:47;;;;;;;0.10;0.10;;;;;;;29.72;44.69;101431.13;5054089;28;20036;-80
2022/08/18 14:27:09;;;;;;;0.10;0.10;;;;;;;29.51;45.59;101421.19;5053837;28;20041;-79
2022/08/18 14:29:36;;;;;;;0.20;0.20;;;;;;;29.44;46.82;101420.03;5054280;28;20036;-79
2022/08/18 14:32:03;;;;;;;0.10;0.10;;;;;;;29.38;46.31;101415.97;5052135;28;20087;-79
2022/08/18 14:34:29;;;;;;;0.15;0.15;;;;;;;29.36;45.75;101418.84;5053375;28;20029;-79
2022/08/18 14:36:55;;;;;;;0.10;0.10;;;;;;;29.43;46.03;101418.31;5053668;28;20033;-79
2022/08/18 14:39:22;;;;;;;0.10;0.10;;;;;;;29.49;45.93;101420.47;5053881;28;20033;-79
2022/08/18 14:41:48;;;;;;;0.55;0.55;;;;;;;29.53;45.45;101419.16;5053667;28;20440;-79
2022/08/18 14:44:14;;;;;;;0.10;0.10;;;;;;;29.58;45.42;101418.75;5053907;28;20032;-79
2022/08/18 14:46:46;;;;;;;0.10;0.10;;;;;;;29.67;45.71;101420.63;5053180;28;20501;-79
2022/08/18 14:49:13;;;;;;;0.00;0.00;;;;;;;29.70;45.21;101415.75;5053964;28;20033;-79
2022/08/18 14:51:43;;;;;;;0.10;0.10;;;;;;;29.73;45.02;101419.22;5053511;28;20387;-79
2022/08/18 14:54:09;;;;;;;0.08;0.08;;;;;;;29.76;45.20;101413.44;5055155;28;20482;-79
2022/08/18 14:56:36;;;;;;;0.35;0.35;;;;;;;29.76;45.70;101407.97;5054634;28;20025;-79
2022/08/18 14:59:06;;;;;;;0.28;0.28;;;;;;;29.78;45.37;101405.97;5054692;28;20029;-79
2022/08/18 15:01:33;;;;;;;0.00;0.00;;;;;;;29.91;46.08;101395.66;5053375;28;20029;-79
2022/08/18 15:04:00;;;;;;;0.63;0.63;;;;;;;29.98;44.43;101391.34;5053446;28;20043;-79
2022/08/18 15:06:26;;;;;;;0.10;0.10;;;;;;;29.96;45.53;101390.63;5053652;28;20052;-79
2022/08/18 15:08:52;;;;;;;0.30;0.30;;;;;;;29.84;44.77;101400.78;5052977;28;20032;-79